sensor_id;sensor_type;location;lat;lon;timestamp;pressure;altitude;pressure_sealevel;temperature;humidity
29903;BME280;30288;50.514;9.678;2023-02-04T00:00:55;99823.97;;;5.88;100.00
29903;BME280;30288;50.514;9.678;2023-02-04T00:03:01;99818.06;;;5.85;100.00
29903;BME280;30288;50.514;9.678;2023-02-04T00:05:07;99827.31;;;5.90;100.00
29903;BME280;30288;50.514;9.678;2023-02-04T00:07:13;99830.47;;;5.74;100.00
29903;BME280;30288;50.514;9.678;2023-02-04T00:09:19;99830.50;;;5.77;100.00
29903;BME280;30288;50.514;9.678;2023-02-04T00:11:24;99830.41;;;5.68;100.00
29903;BME280;30288;50.514;9.678;2023-02-04T00:13:32;99831.19;;;5.59;100.00
29903;BME280;30288;50.514;9.678;2023-02-04T00:15:37;99835.25;;;5.53;100.00
29903;BME280;30288;50.514;9.678;2023-02-04T00:17:42;99836.94;;;5.51;100.00
29903;BME280;30288;50.514;9.678;2023-02-04T00:19:47;99845.34;;;5.62;100.00
29903;BME280;30288;50.514;9.678;2023-02-04T00:21:52;99840.41;;;5.65;100.00
29903;BME280;30288;50.514;9.678;2023-02-04T00:23:57;99837.97;;;5.76;100.00
29903;BME280;30288;50.514;9.678;2023-02-04T00:26:02;99837.03;;;5.66;100.00
29903;BME280;30288;50.514;9.678;2023-02-04T00:28:07;99846.34;;;5.78;100.00
29903;BME280;30288;50.514;9.678;2023-02-04T00:30:16;99841.38;;;5.79;100.00
29903;BME280;30288;50.514;9.678;2023-02-04T00:32:21;99844.63;;;5.75;100.00
29903;BME280;30288;50.514;9.678;2023-02-04T00:34:28;99840.50;;;5.77;100.00
29903;BME280;30288;50.514;9.678;2023-02-04T00:36:33;99846.28;;;5.71;100.00
29903;BME280;30288;50.514;9.678;2023-02-04T00:38:38;99852.25;;;5.84;100.00
29903;BME280;30288;50.514;9.678;2023-02-04T00:40:43;99845.47;;;5.76;100.00
29903;BME280;30288;50.514;9.678;2023-02-04T00:42:48;99845.50;;;5.80;100.00
29903;BME280;30288;50.514;9.678;2023-02-04T00:44:54;99848.88;;;5.82;100.00
29903;BME280;30288;50.514;9.678;2023-02-04T00:47:02;99847.13;;;5.75;100.00
29903;BME280;30288;50.514;9.678;2023-02-04T00:49:07;99850.50;;;5.80;100.00
29903;BME280;30288;50.514;9.678;2023-02-04T00:51:12;99849.63;;;5.73;100.00
29903;BME280;30288;50.514;9.678;2023-02-04T00:53:17;99847.94;;;5.69;100.00
29903;BME280;30288;50.514;9.678;2023-02-04T00:55:22;99855.50;;;5.80;100.00
29903;BME280;30288;50.514;9.678;2023-02-04T00:57:27;99858.81;;;5.76;100.00
29903;BME280;30288;50.514;9.678;2023-02-04T00:59:32;99873.88;;;5.82;100.00
29903;BME280;30288;50.514;9.678;2023-02-04T01:01:38;99862.28;;;5.87;100.00
29903;BME280;30288;50.514;9.678;2023-02-04T01:03:46;99865.56;;;5.86;100.00
29903;BME280;30288;50.514;9.678;2023-02-04T01:05:50;99870.50;;;5.80;100.00
29903;BME280;30288;50.514;9.678;2023-02-04T01:07:55;99877.13;;;5.75;100.00
29903;BME280;30288;50.514;9.678;2023-02-04T01:10:01;99873.81;;;5.76;100.00
29903;BME280;30288;50.514;9.678;2023-02-04T01:12:06;99883.81;;;5.76;100.00
29903;BME280;30288;50.514;9.678;2023-02-04T01:14:12;99895.41;;;5.71;100.00
29903;BME280;30288;50.514;9.678;2023-02-04T01:16:17;99893.00;;;5.79;100.00
29903;BME280;30288;50.514;9.678;2023-02-04T01:18:23;99903.75;;;5.71;100.00
29903;BME280;30288;50.514;9.678;2023-02-04T01:20:30;99895.47;;;5.74;100.00
29903;BME280;30288;50.514;9.678;2023-02-04T01:22:35;99897.13;;;5.75;100.00
29903;BME280;30288;50.514;9.678;2023-02-04T01:24:40;99895.38;;;5.65;100.00
29903;BME280;30288;50.514;9.678;2023-02-04T01:27:04;99900.41;;;5.71;100.00
29903;BME280;30288;50.514;9.678;2023-02-04T01:29:10;99896.22;;;5.68;100.00
29903;BME280;30288;50.514;9.678;2023-02-04T01:31:16;99902.03;;;5.66;100.00
29903;BME280;30288;50.514;9.678;2023-02-04T01:33:23;99902.88;;;5.68;100.00
29903;BME280;30288;50.514;9.678;2023-02-04T01:35:31;99907.00;;;5.63;100.00
29903;BME280;30288;50.514;9.678;2023-02-04T01:37:36;99905.31;;;5.60;100.00
29903;BME280;30288;50.514;9.678;2023-02-04T01:39:41;99898.75;;;5.70;100.00
29903;BME280;30288;50.514;9.678;2023-02-04T01:41:47;99906.97;;;5.60;100.00
29903;BME280;30288;50.514;9.678;2023-02-04T01:43:53;99905.31;;;5.62;100.00
29903;BME280;30288;50.514;9.678;2023-02-04T01:45:59;99894.47;;;5.61;100.00
29903;BME280;30288;50.514;9.678;2023-02-04T01:48:05;99900.31;;;5.62;100.00
29903;BME280;30288;50.514;9.678;2023-02-04T01:50:14;99900.31;;;5.62;100.00
29903;BME280;30288;50.514;9.678;2023-02-04T01:52:22;99907.75;;;5.54;100.00
29903;BME280;30288;50.514;9.678;2023-02-04T01:54:28;99914.47;;;5.61;100.00
29903;BME280;30288;50.514;9.678;2023-02-04T01:56:34;99921.03;;;5.52;100.00
29903;BME280;30288;50.514;9.678;2023-02-04T01:58:39;99917.69;;;5.51;100.00
29903;BME280;30288;50.514;9.678;2023-02-04T02:00:45;99915.19;;;5.51;100.00
29903;BME280;30288;50.514;9.678;2023-02-04T02:02:52;99920.88;;;5.38;100.00
29903;BME280;30288;50.514;9.678;2023-02-04T02:04:57;99917.56;;;5.39;100.00
29903;BME280;30288;50.514;9.678;2023-02-04T02:07:04;99920.03;;;5.38;100.00
29903;BME280;30288;50.514;9.678;2023-02-04T02:09:14;99923.28;;;5.31;100.00
29903;BME280;30288;50.514;9.678;2023-02-04T02:11:19;99929.78;;;5.19;100.00
29903;BME280;30288;50.514;9.678;2023-02-04T02:13:24;99941.50;;;5.23;100.00
29903;BME280;30288;50.514;9.678;2023-02-04T02:15:30;99937.34;;;5.22;100.00
29903;BME280;30288;50.514;9.678;2023-02-04T02:17:35;99944.94;;;5.32;100.00
29903;BME280;30288;50.514;9.678;2023-02-04T02:19:40;99947.50;;;5.36;100.00
29903;BME280;30288;50.514;9.678;2023-02-04T02:21:53;99943.28;;;5.34;100.00
29903;BME280;30288;50.514;9.678;2023-02-04T02:24:26;99947.44;;;5.32;100.00
29903;BME280;30288;50.514;9.678;2023-02-04T02:26:31;99961.59;;;5.33;100.00
29903;BME280;30288;50.514;9.678;2023-02-04T02:28:36;99968.16;;;5.24;100.00
29903;BME280;30288;50.514;9.678;2023-02-04T02:30:42;99973.16;;;5.24;100.00
29903;BME280;30288;50.514;9.678;2023-02-04T02:32:50;99976.47;;;5.23;100.00
29903;BME280;30288;50.514;9.678;2023-02-04T02:34:56;99980.75;;;5.34;100.00
29903;BME280;30288;50.514;9.678;2023-02-04T02:37:03;99984.94;;;5.35;100.00
29903;BME280;30288;50.514;9.678;2023-02-04T02:39:12;99986.53;;;5.29;100.00
29903;BME280;30288;50.514;9.678;2023-02-04T02:41:17;99991.44;;;5.23;100.00
29903;BME280;30288;50.514;9.678;2023-02-04T02:43:26;100001.53;;;5.29;100.00
29903;BME280;30288;50.514;9.678;2023-02-04T02:45:33;99991.44;;;5.23;100.00
29903;BME280;30288;50.514;9.678;2023-02-04T02:47:38;99999.69;;;5.16;100.00
29903;BME280;30288;50.514;9.678;2023-02-04T02:49:43;99994.47;;;5.01;100.00
29903;BME280;30288;50.514;9.678;2023-02-04T02:51:51;99994.38;;;4.95;100.00
29903;BME280;30288;50.514;9.678;2023-02-04T02:53:56;100007.53;;;4.85;100.00
29903;BME280;30288;50.514;9.678;2023-02-04T02:56:05;100004.22;;;4.86;100.00
29903;BME280;30288;50.514;9.678;2023-02-04T02:58:15;99998.38;;;4.84;100.00
29903;BME280;30288;50.514;9.678;2023-02-04T03:00:27;99995.63;;;4.69;100.00
29903;BME280;30288;50.514;9.678;2023-02-04T03:02:33;99993.06;;;4.66;100.00
29903;BME280;30288;50.514;9.678;2023-02-04T03:04:43;99990.50;;;4.60;100.00
29903;BME280;30288;50.514;9.678;2023-02-04T03:06:51;100005.31;;;4.51;100.00
29903;BME280;30288;50.514;9.678;2023-02-04T03:08:57;100020.13;;;4.42;100.00
29903;BME280;30288;50.514;9.678;2023-02-04T03:11:05;100021.06;;;4.48;100.00
29903;BME280;30288;50.514;9.678;2023-02-04T03:13:11;100018.59;;;4.50;100.00
29903;BME280;30288;50.514;9.678;2023-02-04T03:15:18;100017.66;;;4.43;100.00
29903;BME280;30288;50.514;9.678;2023-02-04T03:17:24;100018.38;;;4.37;100.00
29903;BME280;30288;50.514;9.678;2023-02-04T03:19:29;100025.19;;;4.48;100.00
29903;BME280;30288;50.514;9.678;2023-02-04T03:21:35;100025.03;;;4.38;100.00
29903;BME280;30288;50.514;9.678;2023-02-04T03:23:41;100016.03;;;4.45;100.00
29903;BME280;30288;50.514;9.678;2023-02-04T03:25:47;100030.16;;;4.45;100.00
29903;BME280;30288;50.514;9.678;2023-02-04T03:27:57;100035.28;;;4.54;100.00
29903;BME280;30288;50.514;9.678;2023-02-04T03:30:03;100035.09;;;4.42;100.00
29903;BME280;30288;50.514;9.678;2023-02-04T03:32:10;100042.75;;;4.52;100.00
29903;BME280;30288;50.514;9.678;2023-02-04T03:34:15;100043.59;;;4.53;100.00
29903;BME280;30288;50.514;9.678;2023-02-04T03:36:21;100037.03;;;4.58;100.00
29903;BME280;30288;50.514;9.678;2023-02-04T03:38:27;100050.16;;;4.48;100.00
29903;BME280;30288;50.514;9.678;2023-02-04T03:40:33;100050.84;;;4.39;100.00
29903;BME280;30288;50.514;9.678;2023-02-04T03:42:38;100054.03;;;4.32;100.00
29903;BME280;30288;50.514;9.678;2023-02-04T03:44:45;100048.22;;;4.31;100.00
29903;BME280;30288;50.514;9.678;2023-02-04T03:46:50;100048.97;;;4.29;100.00
29903;BME280;30288;50.514;9.678;2023-02-04T03:48:56;100057.72;;;4.07;100.00
29903;BME280;30288;50.514;9.678;2023-02-04T03:51:02;100054.25;;;3.99;100.00
29903;BME280;30288;50.514;9.678;2023-02-04T03:53:07;100068.34;;;3.99;100.00
29903;BME280;30288;50.514;9.678;2023-02-04T03:55:13;100067.34;;;3.89;100.00
29903;BME280;30288;50.514;9.678;2023-02-04T03:57:18;100064.88;;;3.92;100.00
29903;BME280;30288;50.514;9.678;2023-02-04T03:59:23;100071.56;;;3.94;100.00
29903;BME280;30288;50.514;9.678;2023-02-04T04:01:31;100080.97;;;4.06;100.00
29903;BME280;30288;50.514;9.678;2023-02-04T04:03:36;100080.16;;;4.07;100.00
29903;BME280;30288;50.514;9.678;2023-02-04T04:05:42;100079.28;;;4.05;100.00
29903;BME280;30288;50.514;9.678;2023-02-04T04:07:47;100090.22;;;4.12;100.00
29903;BME280;30288;50.514;9.678;2023-02-04T04:09:52;100089.59;;;4.23;100.00
29903;BME280;30288;50.514;9.678;2023-02-04T04:11:57;100086.25;;;4.21;100.00
29903;BME280;30288;50.514;9.678;2023-02-04T04:14:05;100089.31;;;4.08;100.00
29903;BME280;30288;50.514;9.678;2023-02-04T04:16:10;100090.19;;;4.10;100.00
29903;BME280;30288;50.514;9.678;2023-02-04T04:18:19;100094.50;;;4.17;100.00
29903;BME280;30288;50.514;9.678;2023-02-04T04:20:24;100087.81;;;4.16;100.00
29903;BME280;30288;50.514;9.678;2023-02-04T04:22:30;100082.66;;;4.09;100.00
29903;BME280;30288;50.514;9.678;2023-02-04T04:24:36;100090.97;;;4.09;100.00
29903;BME280;30288;50.514;9.678;2023-02-04T04:26:42;100087.75;;;4.13;100.00
29903;BME280;30288;50.514;9.678;2023-02-04T04:28:47;100087.63;;;4.07;100.00
29903;BME280;30288;50.514;9.678;2023-02-04T04:30:52;100084.44;;;4.14;100.00
29903;BME280;30288;50.514;9.678;2023-02-04T04:32:58;100088.88;;;4.27;100.00
29903;BME280;30288;50.514;9.678;2023-02-04T04:35:07;100091.09;;;4.15;100.00
29903;BME280;30288;50.514;9.678;2023-02-04T04:37:12;100087.63;;;4.07;100.00
29903;BME280;30288;50.514;9.678;2023-02-04T04:39:17;100094.03;;;3.96;100.00
29903;BME280;30288;50.514;9.678;2023-02-04T04:41:23;100097.41;;;3.98;100.00
29903;BME280;30288;50.514;9.678;2023-02-04T04:43:28;100101.28;;;3.85;100.00
29903;BME280;30288;50.514;9.678;2023-02-04T04:45:34;100103.06;;;3.91;100.00
29903;BME280;30288;50.514;9.678;2023-02-04T04:47:39;100123.75;;;3.87;100.00
29903;BME280;30288;50.514;9.678;2023-02-04T04:49:44;100121.41;;;3.94;100.00
29903;BME280;30288;50.514;9.678;2023-02-04T04:51:52;100131.38;;;3.94;100.00
29903;BME280;30288;50.514;9.678;2023-02-04T04:53:57;100124.66;;;3.89;100.00
29903;BME280;30288;50.514;9.678;2023-02-04T04:56:03;100131.97;;;3.83;100.00
29903;BME280;30288;50.514;9.678;2023-02-04T04:58:09;100132.75;;;3.80;100.00
29903;BME280;30288;50.514;9.678;2023-02-04T05:00:17;100128.69;;;3.84;100.00
29903;BME280;30288;50.514;9.678;2023-02-04T05:02:22;100139.09;;;4.05;100.00
29903;BME280;30288;50.514;9.678;2023-02-04T05:04:28;100145.09;;;4.15;100.00
29903;BME280;30288;50.514;9.678;2023-02-04T05:06:34;100155.94;;;4.15;100.00
29903;BME280;30288;50.514;9.678;2023-02-04T05:08:41;100160.13;;;4.16;100.00
29903;BME280;30288;50.514;9.678;2023-02-04T05:10:46;100174.00;;;4.05;100.00
29903;BME280;30288;50.514;9.678;2023-02-04T05:12:52;100182.16;;;4.00;100.00
29903;BME280;30288;50.514;9.678;2023-02-04T05:14:57;100182.16;;;3.98;100.00
29903;BME280;30288;50.514;9.678;2023-02-04T05:17:03;100184.56;;;3.93;100.00
29903;BME280;30288;50.514;9.678;2023-02-04T05:19:08;100178.59;;;3.87;100.00
29903;BME280;30288;50.514;9.678;2023-02-04T05:21:14;100178.53;;;3.84;100.00
29903;BME280;30288;50.514;9.678;2023-02-04T05:23:20;100181.75;;;3.80;100.00
29903;BME280;30288;50.514;9.678;2023-02-04T05:25:28;100175.78;;;3.73;100.00
29903;BME280;30288;50.514;9.678;2023-02-04T05:27:33;100190.69;;;3.72;100.00
29903;BME280;30288;50.514;9.678;2023-02-04T05:29:38;100199.00;;;3.72;100.00
29903;BME280;30288;50.514;9.678;2023-02-04T05:31:43;100199.00;;;3.72;100.00
29903;BME280;30288;50.514;9.678;2023-02-04T05:33:48;100208.19;;;3.73;100.00
29903;BME280;30288;50.514;9.678;2023-02-04T05:35:53;100211.41;;;3.71;100.00
29903;BME280;30288;50.514;9.678;2023-02-04T05:37:58;100214.75;;;3.70;100.00
29903;BME280;30288;50.514;9.678;2023-02-04T05:40:05;100213.13;;;3.72;100.00
29903;BME280;30288;50.514;9.678;2023-02-04T05:42:13;100206.44;;;3.71;100.00
29903;BME280;30288;50.514;9.678;2023-02-04T05:44:18;100207.28;;;3.70;100.00
29903;BME280;30288;50.514;9.678;2023-02-04T05:46:23;100213.91;;;3.71;100.00
29903;BME280;30288;50.514;9.678;2023-02-04T05:48:29;100217.47;;;3.80;100.00
29903;BME280;30288;50.514;9.678;2023-02-04T05:50:34;100221.63;;;3.80;100.00
29903;BME280;30288;50.514;9.678;2023-02-04T05:52:42;100214.28;;;3.86;100.00
29903;BME280;30288;50.514;9.678;2023-02-04T05:54:47;100213.53;;;3.90;100.00
29903;BME280;30288;50.514;9.678;2023-02-04T05:56:52;100215.31;;;3.94;100.00
29903;BME280;30288;50.514;9.678;2023-02-04T05:59:00;100228.56;;;3.93;100.00
29903;BME280;30288;50.514;9.678;2023-02-04T06:01:05;100232.84;;;3.99;100.00
29903;BME280;30288;50.514;9.678;2023-02-04T06:03:14;100232.97;;;4.03;100.00
29903;BME280;30288;50.514;9.678;2023-02-04T06:05:20;100231.91;;;3.95;100.00
29903;BME280;30288;50.514;9.678;2023-02-04T06:07:29;100240.50;;;4.06;100.00
29903;BME280;30288;50.514;9.678;2023-02-04T06:09:34;100238.19;;;4.15;100.00
29903;BME280;30288;50.514;9.678;2023-02-04T06:11:39;100237.34;;;4.13;100.00
29903;BME280;30288;50.514;9.678;2023-02-04T06:13:45;100236.28;;;4.04;100.00
29903;BME280;30288;50.514;9.678;2023-02-04T06:15:52;100248.13;;;4.14;100.00
29903;BME280;30288;50.514;9.678;2023-02-04T06:17:57;100255.59;;;4.12;100.00
29903;BME280;30288;50.514;9.678;2023-02-04T06:20:03;100260.44;;;4.06;100.00
29903;BME280;30288;50.514;9.678;2023-02-04T06:22:09;100256.84;;;3.95;100.00
29903;BME280;30288;50.514;9.678;2023-02-04T06:24:14;100255.97;;;3.93;100.00
29903;BME280;30288;50.514;9.678;2023-02-04T06:26:19;100252.69;;;3.95;100.00
29903;BME280;30288;50.514;9.678;2023-02-04T06:28:25;100250.25;;;3.97;100.00
29903;BME280;30288;50.514;9.678;2023-02-04T06:30:30;100265.06;;;3.91;100.00
29903;BME280;30288;50.514;9.678;2023-02-04T06:32:39;100265.16;;;3.94;100.00
29903;BME280;30288;50.514;9.678;2023-02-04T06:34:44;100265.16;;;3.94;100.00
29903;BME280;30288;50.514;9.678;2023-02-04T06:36:50;100265.06;;;3.91;100.00
29903;BME280;30288;50.514;9.678;2023-02-04T06:38:55;100271.53;;;3.83;100.00
29903;BME280;30288;50.514;9.678;2023-02-04T06:41:00;100278.09;;;3.81;100.00
29903;BME280;30288;50.514;9.678;2023-02-04T06:43:05;100276.03;;;3.97;100.00
29903;BME280;30288;50.514;9.678;2023-02-04T06:45:13;100276.69;;;3.90;100.00
29903;BME280;30288;50.514;9.678;2023-02-04T06:47:18;100274.06;;;3.86;100.00
29903;BME280;30288;50.514;9.678;2023-02-04T06:49:26;100277.88;;;3.72;100.00
29903;BME280;30288;50.514;9.678;2023-02-04T06:51:31;100284.19;;;3.58;100.00
29903;BME280;30288;50.514;9.678;2023-02-04T06:53:36;100287.34;;;3.50;100.00
29903;BME280;30288;50.514;9.678;2023-02-04T06:55:43;100285.47;;;3.43;100.00
29903;BME280;30288;50.514;9.678;2023-02-04T06:57:49;100293.63;;;3.36;100.00
29903;BME280;30288;50.514;9.678;2023-02-04T06:59:55;100300.03;;;3.28;100.00
29903;BME280;30288;50.514;9.678;2023-02-04T07:02:01;100302.50;;;3.27;100.00
29903;BME280;30288;50.514;9.678;2023-02-04T07:04:06;100308.38;;;3.30;100.00
29903;BME280;30288;50.514;9.678;2023-02-04T07:06:14;100319.31;;;3.35;100.00
29903;BME280;30288;50.514;9.678;2023-02-04T07:08:19;100319.44;;;3.40;100.00
29903;BME280;30288;50.514;9.678;2023-02-04T07:10:25;100324.47;;;3.43;100.00
29903;BME280;30288;50.514;9.678;2023-02-04T07:12:33;100323.81;;;3.48;100.00
29903;BME280;30288;50.514;9.678;2023-02-04T07:14:40;100321.47;;;3.55;100.00
29903;BME280;30288;50.514;9.678;2023-02-04T07:16:47;100322.34;;;3.57;100.00
29903;BME280;30288;50.514;9.678;2023-02-04T07:18:55;100332.47;;;3.63;100.00
29903;BME280;30288;50.514;9.678;2023-02-04T07:21:02;100330.88;;;3.65;100.00
29903;BME280;30288;50.514;9.678;2023-02-04T07:23:12;100334.31;;;3.70;100.00
29903;BME280;30288;50.514;9.678;2023-02-04T07:25:19;100344.34;;;3.73;100.00
29903;BME280;30288;50.514;9.678;2023-02-04T07:27:25;100341.19;;;3.78;100.00
29903;BME280;30288;50.514;9.678;2023-02-04T07:29:31;100339.66;;;3.85;100.00
29903;BME280;30288;50.514;9.678;2023-02-04T07:31:37;100346.50;;;3.92;100.00
29903;BME280;30288;50.514;9.678;2023-02-04T07:33:43;100353.50;;;4.07;100.00
29903;BME280;30288;50.514;9.678;2023-02-04T07:35:50;100351.88;;;4.07;100.00
29903;BME280;30288;50.514;9.678;2023-02-04T07:37:56;100360.31;;;4.12;100.00
29903;BME280;30288;50.514;9.678;2023-02-04T07:40:06;100365.34;;;4.15;100.00
29903;BME280;30288;50.514;9.678;2023-02-04T07:42:12;100372.09;;;4.19;100.00
29903;BME280;30288;50.514;9.678;2023-02-04T07:44:27;100378.03;;;4.24;100.00
29903;BME280;30288;50.514;9.678;2023-02-04T07:46:36;100392.25;;;4.28;100.00
29903;BME280;30288;50.514;9.678;2023-02-04T07:48:41;100389.69;;;4.25;100.00
29903;BME280;30288;50.514;9.678;2023-02-04T07:50:47;100394.84;;;4.31;100.00
29903;BME280;30288;50.514;9.678;2023-02-04T07:52:53;100389.91;;;4.34;100.00
29903;BME280;30288;50.514;9.678;2023-02-04T07:54:58;100397.56;;;4.40;100.00
29903;BME280;30288;50.514;9.678;2023-02-04T07:57:07;100410.88;;;4.43;100.00
29903;BME280;30288;50.514;9.678;2023-02-04T07:59:12;100405.88;;;4.41;100.00
29903;BME280;30288;50.514;9.678;2023-02-04T08:01:18;100407.75;;;4.50;100.00
29903;BME280;30288;50.514;9.678;2023-02-04T08:03:24;100403.50;;;4.46;100.00
29903;BME280;30288;50.514;9.678;2023-02-04T08:05:30;100413.44;;;4.44;100.00
29903;BME280;30288;50.514;9.678;2023-02-04T08:07:36;100420.16;;;4.48;100.00
29903;BME280;30288;50.514;9.678;2023-02-04T08:09:42;100420.66;;;4.33;100.00
29903;BME280;30288;50.514;9.678;2023-02-04T08:11:48;100420.59;;;4.30;100.00
29903;BME280;30288;50.514;9.678;2023-02-04T08:13:57;100412.38;;;4.34;100.00
29903;BME280;30288;50.514;9.678;2023-02-04T08:16:04;100418.94;;;4.32;100.00
29903;BME280;30288;50.514;9.678;2023-02-04T08:18:11;100419.03;;;4.35;100.00
29903;BME280;30288;50.514;9.678;2023-02-04T08:20:18;100427.16;;;4.28;100.00
29903;BME280;30288;50.514;9.678;2023-02-04T08:22:24;100422.34;;;4.34;100.00
29903;BME280;30288;50.514;9.678;2023-02-04T08:24:31;100424.44;;;4.19;100.00
29903;BME280;30288;50.514;9.678;2023-02-04T08:26:37;100428.25;;;4.05;100.00
29903;BME280;30288;50.514;9.678;2023-02-04T08:28:43;100433.56;;;4.17;100.00
29903;BME280;30288;50.514;9.678;2023-02-04T08:30:51;100442.13;;;4.28;100.00
29903;BME280;30288;50.514;9.678;2023-02-04T08:32:58;100444.84;;;4.36;100.00
29903;BME280;30288;50.514;9.678;2023-02-04T08:35:04;100451.09;;;4.55;100.00
29903;BME280;30288;50.514;9.678;2023-02-04T08:37:10;100448.97;;;4.70;100.00
29903;BME280;30288;50.514;9.678;2023-02-04T08:39:16;100454.16;;;4.79;100.00
29903;BME280;30288;50.514;9.678;2023-02-04T08:41:22;100456.94;;;4.91;100.00
29903;BME280;30288;50.514;9.678;2023-02-04T08:43:28;100453.28;;;4.77;100.00
29903;BME280;30288;50.514;9.678;2023-02-04T08:45:34;100463.94;;;4.70;100.00
29903;BME280;30288;50.514;9.678;2023-02-04T08:47:41;100452.91;;;4.62;100.00
29903;BME280;30288;50.514;9.678;2023-02-04T08:49:47;100462.78;;;4.56;100.00
29903;BME280;30288;50.514;9.678;2023-02-04T08:51:51;100465.97;;;4.50;100.00
29903;BME280;30288;50.514;9.678;2023-02-04T08:53:57;100476.78;;;4.51;100.00
29903;BME280;30288;50.514;9.678;2023-02-04T08:56:03;100479.13;;;4.45;100.00
29903;BME280;30288;50.514;9.678;2023-02-04T08:58:08;100471.06;;;4.55;100.00
29903;BME280;30288;50.514;9.678;2023-02-04T09:00:15;100472.19;;;4.67;100.00
29903;BME280;30288;50.514;9.678;2023-02-04T09:02:20;100478.03;;;4.68;100.00
29903;BME280;30288;50.514;9.678;2023-02-04T09:04:28;100475.69;;;4.75;100.00
29903;BME280;30288;50.514;9.678;2023-02-04T09:06:33;100480.09;;;4.84;100.00
29903;BME280;30288;50.514;9.678;2023-02-04T09:08:39;100481.75;;;4.85;100.00
29903;BME280;30288;50.514;9.678;2023-02-04T09:10:44;100485.50;;;5.02;100.00
29903;BME280;30288;50.514;9.678;2023-02-04T09:12:49;100495.63;;;5.08;100.00
29903;BME280;30288;50.514;9.678;2023-02-04T09:14:57;100501.66;;;5.18;100.00
29903;BME280;30288;50.514;9.678;2023-02-04T09:17:02;100494.38;;;5.28;100.00
29903;BME280;30288;50.514;9.678;2023-02-04T09:19:07;100494.19;;;5.19;100.00
29903;BME280;30288;50.514;9.678;2023-02-04T09:21:16;100490.84;;;5.17;100.00
29903;BME280;30288;50.514;9.678;2023-02-04T09:23:21;100507.41;;;5.15;100.00
29903;BME280;30288;50.514;9.678;2023-02-04T09:25:26;100504.88;;;5.14;100.00
29903;BME280;30288;50.514;9.678;2023-02-04T09:27:31;100506.25;;;5.01;100.00
29903;BME280;30288;50.514;9.678;2023-02-04T09:29:36;100506.88;;;4.91;100.00
29903;BME280;30288;50.514;9.678;2023-02-04T09:31:41;100503.63;;;4.95;100.00
29903;BME280;30288;50.514;9.678;2023-02-04T09:33:46;100506.00;;;4.89;100.00
29903;BME280;30288;50.514;9.678;2023-02-04T09:35:51;100503.56;;;4.92;100.00
29903;BME280;30288;50.514;9.678;2023-02-04T09:37:59;100505.59;;;4.72;100.00
29903;BME280;30288;50.514;9.678;2023-02-04T09:40:05;100503.13;;;4.74;100.00
29903;BME280;30288;50.514;9.678;2023-02-04T09:42:13;100513.13;;;4.74;100.00
29903;BME280;30288;50.514;9.678;2023-02-04T09:44:21;100518.38;;;4.86;100.00
29903;BME280;30288;50.514;9.678;2023-02-04T09:46:27;100513.53;;;4.92;100.00
29903;BME280;30288;50.514;9.678;2023-02-04T09:48:33;100514.16;;;5.19;100.00
29903;BME280;30288;50.514;9.678;2023-02-04T09:50:38;100523.59;;;5.33;100.00
29903;BME280;30288;50.514;9.678;2023-02-04T09:52:45;100517.16;;;5.41;100.00
29903;BME280;30288;50.514;9.678;2023-02-04T09:54:55;100515.22;;;5.68;100.00
29903;BME280;30288;50.514;9.678;2023-02-04T09:57:01;100524.19;;;5.58;100.00
29903;BME280;30288;50.514;9.678;2023-02-04T09:59:10;100528.59;;;5.70;100.00
29903;BME280;30288;50.514;9.678;2023-02-04T10:01:18;100532.94;;;5.80;100.00
29903;BME280;30288;50.514;9.678;2023-02-04T10:03:24;100545.53;;;5.83;100.00
29903;BME280;30288;50.514;9.678;2023-02-04T10:05:31;100540.56;;;5.86;100.00
29903;BME280;30288;50.514;9.678;2023-02-04T10:07:38;100544.31;;;5.64;100.00
29903;BME280;30288;50.514;9.678;2023-02-04T10:09:43;100542.56;;;5.62;100.00
29903;BME280;30288;50.514;9.678;2023-02-04T10:11:51;100547.38;;;5.53;100.00
29903;BME280;30288;50.514;9.678;2023-02-04T10:13:58;100551.44;;;5.48;100.00
29903;BME280;30288;50.514;9.678;2023-02-04T10:16:13;100557.09;;;5.78;100.00
29903;BME280;30288;50.514;9.678;2023-02-04T10:18:24;100559.91;;;5.92;100.00
29903;BME280;30288;50.514;9.678;2023-02-04T10:20:31;100547.63;;;6.02;100.00
29903;BME280;30288;50.514;9.678;2023-02-04T10:22:37;100550.75;;;6.37;100.00
29903;BME280;30288;50.514;9.678;2023-02-04T10:24:43;100555.28;;;6.55;100.00
29903;BME280;30288;50.514;9.678;2023-02-04T10:26:52;100555.28;;;6.55;100.00
29903;BME280;30288;50.514;9.678;2023-02-04T10:28:59;100555.44;;;6.66;100.00
29903;BME280;30288;50.514;9.678;2023-02-04T10:31:05;100562.06;;;6.62;100.00
29903;BME280;30288;50.514;9.678;2023-02-04T10:33:14;100565.78;;;6.85;100.00
29903;BME280;30288;50.514;9.678;2023-02-04T10:35:21;100574.47;;;7.06;100.00
29903;BME280;30288;50.514;9.678;2023-02-04T10:37:27;100566.25;;;7.13;100.00
29903;BME280;30288;50.514;9.678;2023-02-04T10:39:41;100565.72;;;7.35;100.00
29903;BME280;30288;50.514;9.678;2023-02-04T10:41:51;100566.88;;;7.55;100.00
29903;BME280;30288;50.514;9.678;2023-02-04T10:44:05;100561.63;;;7.40;100.00
29903;BME280;30288;50.514;9.678;2023-02-04T10:46:11;100566.53;;;7.34;100.00
29903;BME280;30288;50.514;9.678;2023-02-04T10:48:24;100565.97;;;7.53;100.00
29903;BME280;30288;50.514;9.678;2023-02-04T10:50:31;100574.31;;;7.51;100.00
29903;BME280;30288;50.514;9.678;2023-02-04T10:52:39;100572.63;;;7.51;100.00
29903;BME280;30288;50.514;9.678;2023-02-04T10:54:46;100567.41;;;7.37;100.00
29903;BME280;30288;50.514;9.678;2023-02-04T10:56:52;100577.84;;;7.08;100.00
29903;BME280;30288;50.514;9.678;2023-02-04T10:58:57;100577.09;;;7.15;100.00
29903;BME280;30288;50.514;9.678;2023-02-04T11:01:08;100572.13;;;7.16;100.00
29903;BME280;30288;50.514;9.678;2023-02-04T11:03:18;100572.59;;;6.92;100.00